Terminal Aerodrome Forecast
Issued by NWS

Home | Current Version | Previous Version | Text Only | Print | Product List | Glossary On
Versions: 1 2 3 4 5 6 7 8 9 10 11 12 13 14 15 16 17 18 19 20 21 22 23 24 25
295
FTUS43 KMQT 280534
TAFCMX
TAF
KCMX 280534Z 2806/2906 09010KT 1/4SM FG VV002
     FM281200 09006KT 1/2SM FG OVC002
     FM281600 12005KT 3SM BR OVC008
     FM282000 09004KT 5SM -SHRA OVC015
     FM290100 09004KT 2SM BR BKN008=

USA.gov is the U.S. government's official web portal to all federal, state and local government web resources and services.